Terminal Aerodrome Forecast
Issued by NWS

Home | Current Version | Previous Version | Text Only | Print | Product List | Glossary On
Versions: 1 2 3 4 5 6 7 8 9 10 11 12 13 14 15 16 17
000
FTUS46 KMFR 250535
TAFOTH
TAF
KOTH 250535Z 2506/2606 19005KT P6SM VCSH SCT015 BKN025 OVC035
     FM251200 17007KT P6SM SCT020 BKN040
     FM252000 23007KT P6SM SCT040 BKN150=

USA.gov is the U.S. government's official web portal to all federal, state and local government web resources and services.